Terminal Aerodrome Forecast
Issued by NWS Austin/San Antonio, TX

Home | Current Version | Previous Version | Text Only | Print | Product List | Glossary On
Versions: 1 2 3 4 5 6 7 8 9 10 11 12 13 14
000
FTUS44 KEWX 291743
TAFAUS
TAF
KAUS 291743Z 2918/3024 19016G26KT P6SM SKC
     FM300000 17012KT P6SM FEW250
     FM300600 17010KT P6SM OVC012
     FM300900 17005KT 2SM BR OVC006
     FM301600 18012KT P6SM OVC015
     FM301900 17008KT P6SM BKN030=

USA.gov is the U.S. government's official web portal to all federal, state and local government web resources and services.